Time;durP1;ratioP1;P1;durP2;ratioP2;P2;SDS_P1;SDS_P2;PMS_P1;PMS_P2;Temp;Humidity;BMP_temperature;BMP_pressure;BME280_temperature;BME280_humidity;BME280_pressure;Samples;Min_cycle;Max_cycle;Signal;HPM_P1;HPM_P2
2023/10/30 00:00:37;;;;;;;37.03;33.10;;;20.00;1.00;;;;;;5066460;28;20039;-68
2023/10/30 00:03:03;;;;;;;37.85;33.60;;;19.90;1.00;;;;;;5066264;28;20036;-68
2023/10/30 00:05:29;;;;;;;37.22;33.22;;;20.00;1.00;;;;;;5065498;28;20044;-68
2023/10/30 00:07:55;;;;;;;37.63;33.25;;;19.80;1.00;;;;;;5031700;28;20125;-68
2023/10/30 00:10:21;;;;;;;37.03;33.03;;;20.00;1.00;;;;;;5065511;28;20040;-67
2023/10/30 00:12:46;;;;;;;38.17;33.35;;;20.00;1.00;;;;;;5063817;28;20541;-68
2023/10/30 00:15:12;;;;;;;36.83;32.80;;;19.90;1.00;;;;;;5066012;28;20074;-68
2023/10/30 00:17:38;;;;;;;37.15;32.78;;;19.90;1.00;;;;;;5066551;28;20036;-69
2023/10/30 00:20:04;;;;;;;36.25;32.53;;;19.80;1.00;;;;;;5059230;28;20063;-68
2023/10/30 00:22:30;;;;;;;36.38;32.67;;;19.90;1.00;;;;;;5052227;28;20545;-68
2023/10/30 00:24:56;;;;;;;40.22;33.42;;;19.80;1.00;;;;;;5063302;28;20037;-68
2023/10/30 00:27:21;;;;;;;40.63;33.00;;;19.90;1.00;;;;;;5065688;28;20044;-68
2023/10/30 00:29:47;;;;;;;39.03;32.65;;;19.90;1.00;;;;;;5064644;28;20063;-67
2023/10/30 00:32:12;;;;;;;43.15;32.92;;;20.00;1.00;;;;;;5066243;28;20041;-68
2023/10/30 00:34:39;;;;;;;39.42;33.58;;;19.80;1.00;;;;;;5065355;28;20043;-64
2023/10/30 00:37:07;;;;;;;42.97;32.50;;;19.90;1.00;;;;;;5064088;28;20048;-63
2023/10/30 00:39:32;;;;;;;40.20;32.38;;;19.70;1.00;;;;;;5065847;28;20045;-62
2023/10/30 00:42:01;;;;;;;36.47;31.92;;;19.90;1.00;;;;;;5067927;28;20040;-63
2023/10/30 00:44:27;;;;;;;37.25;31.08;;;19.70;1.00;;;;;;5069041;28;20028;-62
2023/10/30 00:46:53;;;;;;;37.10;32.25;;;19.80;1.00;;;;;;5068560;28;20502;-62
2023/10/30 00:49:19;;;;;;;34.63;30.58;;;19.70;1.00;;;;;;5068491;28;20825;-62
2023/10/30 00:51:45;;;;;;;36.10;31.55;;;19.60;1.00;;;;;;5069757;28;20052;-64
2023/10/30 00:54:11;;;;;;;35.45;31.75;;;19.80;1.00;;;;;;5069415;28;20044;-62
2023/10/30 00:56:36;;;;;;;37.42;32.28;;;19.70;1.00;;;;;;5069283;28;20051;-63
2023/10/30 00:59:02;;;;;;;35.97;31.60;;;19.60;1.00;;;;;;5068137;28;20041;-63
2023/10/30 01:01:27;;;;;;;37.20;33.15;;;19.60;1.00;;;;;;5069424;28;20064;-63
2023/10/30 01:03:53;;;;;;;35.05;31.38;;;19.60;1.00;;;;;;5069074;28;20059;-63
2023/10/30 01:06:18;;;;;;;34.45;30.75;;;19.80;1.00;;;;;;5067646;28;20037;-62
2023/10/30 01:08:44;;;;;;;36.08;32.08;;;19.60;1.00;;;;;;5067319;28;20032;-63
2023/10/30 01:11:10;;;;;;;35.75;31.60;;;19.50;1.00;;;;;;5057599;28;20044;-62
2023/10/30 01:13:36;;;;;;;38.17;34.22;;;19.80;1.00;;;;;;5066933;28;20036;-64
2023/10/30 01:16:03;;;;;;;36.47;32.60;;;19.60;1.00;;;;;;5067693;28;20190;-64
2023/10/30 01:18:28;;;;;;;39.20;32.88;;;19.50;1.00;;;;;;5067461;28;20069;-63
2023/10/30 01:20:55;;;;;;;37.40;31.77;;;19.60;1.00;;;;;;5055981;28;20084;-62
2023/10/30 01:23:21;;;;;;;37.05;32.55;;;19.50;1.00;;;;;;5054076;28;20041;-63
2023/10/30 01:25:47;;;;;;;38.05;32.35;;;19.50;1.00;;;;;;5067509;28;20037;-62
2023/10/30 01:28:14;;;;;;;40.75;33.70;;;19.50;1.00;;;;;;5067531;28;20052;-63
2023/10/30 01:30:39;;;;;;;41.83;33.58;;;19.60;30.60;;;;;;5068830;28;20064;-64
2023/10/30 01:33:05;;;;;;;39.42;32.88;;;19.70;59.90;;;;;;5067699;28;20048;-63
2023/10/30 01:35:31;;;;;;;40.15;33.92;;;19.60;99.90;;;;;;5068556;28;20051;-62
2023/10/30 01:37:57;;;;;;;37.88;33.78;;;19.60;99.90;;;;;;5067557;28;20182;-63
2023/10/30 01:40:22;;;;;;;41.42;33.65;;;19.50;99.90;;;;;;5067710;28;20032;-63
2023/10/30 01:42:48;;;;;;;46.22;34.80;;;19.60;99.90;;;;;;5066830;28;20076;-62
2023/10/30 01:45:13;;;;;;;44.30;34.03;;;19.70;99.90;;;;;;5067877;28;20478;-63
2023/10/30 01:47:39;;;;;;;41.17;32.50;;;19.60;99.90;;;;;;5067838;28;20064;-63
2023/10/30 01:50:07;;;;;;;46.58;33.15;;;19.70;99.90;;;;;;5068588;28;20047;-63
2023/10/30 01:52:33;;;;;;;42.53;32.90;;;19.80;99.90;;;;;;5067917;28;20032;-63
2023/10/30 01:54:59;;;;;;;45.80;33.30;;;19.80;99.90;;;;;;5084412;28;20450;-62
2023/10/30 01:57:27;;;;;;;39.08;32.58;;;19.60;99.90;;;;;;5067186;28;20047;-63
2023/10/30 01:59:54;;;;;;;39.00;32.67;;;19.70;99.90;;;;;;5068497;28;20402;-64
2023/10/30 02:02:20;;;;;;;42.10;33.13;;;19.90;99.90;;;;;;5068210;28;20039;-63
2023/10/30 02:04:47;;;;;;;40.38;33.03;;;19.60;99.90;;;;;;5083101;28;20045;-62
2023/10/30 02:07:13;;;;;;;42.67;33.28;;;19.90;99.90;;;;;;5066542;28;20079;-62
2023/10/30 02:09:40;;;;;;;43.58;33.47;;;19.70;99.90;;;;;;5055005;28;20048;-63
2023/10/30 02:12:06;;;;;;;40.63;33.97;;;19.90;99.90;;;;;;5061272;28;20127;-65
2023/10/30 02:14:32;;;;;;;46.38;34.45;;;19.70;99.90;;;;;;5066462;28;20082;-63
2023/10/30 02:16:57;;;;;;;45.28;33.58;;;19.90;99.90;;;;;;5067735;28;20045;-63
2023/10/30 02:19:24;;;;;;;42.15;33.85;;;19.80;99.90;;;;;;5065954;28;20053;-63
2023/10/30 02:21:51;;;;;;;41.45;33.17;;;19.80;99.90;;;;;;5062596;28;20033;-63
2023/10/30 02:24:17;;;;;;;40.72;33.35;;;19.70;99.90;;;;;;5062795;28;20158;-62
2023/10/30 02:26:43;;;;;;;37.85;32.28;;;19.70;99.90;;;;;;5065799;28;20036;-63
2023/10/30 02:29:09;;;;;;;38.45;31.92;;;19.70;99.90;;;;;;5067457;28;20071;-63
2023/10/30 02:31:35;;;;;;;36.33;31.40;;;19.40;99.90;;;;;;5067936;28;20056;-63
2023/10/30 02:34:01;;;;;;;36.53;32.30;;;19.90;99.90;;;;;;5066479;28;20067;-62
2023/10/30 02:36:26;;;;;;;35.60;31.60;;;19.40;70.80;;;;;;5067841;28;20040;-63
2023/10/30 02:38:55;;;;;;;35.90;31.92;;;19.30;39.70;;;;;;5067042;28;20048;-63
2023/10/30 02:41:21;;;;;;;36.00;31.40;;;19.10;39.60;;;;;;5065243;28;20040;-63
2023/10/30 02:43:47;;;;;;;33.88;30.48;;;19.10;17.50;;;;;;5063600;28;20395;-62
2023/10/30 02:46:12;;;;;;;34.33;30.73;;;19.20;17.70;;;;;;5067668;28;20040;-63
2023/10/30 02:48:38;;;;;;;34.55;30.83;;;19.20;21.20;;;;;;5066748;28;20040;-63
2023/10/30 02:51:04;;;;;;;34.63;31.13;;;19.10;20.50;;;;;;5065441;28;20402;-62
2023/10/30 02:53:30;;;;;;;34.40;30.92;;;19.10;33.00;;;;;;5066443;28;20066;-64
2023/10/30 02:55:56;;;;;;;35.35;31.63;;;19.40;54.00;;;;;;5067273;28;20044;-63
2023/10/30 02:58:21;;;;;;;34.65;31.08;;;19.20;70.30;;;;;;5067442;28;20131;-64
2023/10/30 03:00:48;;;;;;;35.80;32.15;;;19.00;49.20;;;;;;5067157;28;20054;-63
2023/10/30 03:03:13;;;;;;;35.08;31.55;;;19.30;61.60;;;;;;5064970;28;20094;-63
2023/10/30 03:05:39;;;;;;;35.58;31.60;;;19.10;75.20;;;;;;5066992;28;20410;-62
2023/10/30 03:08:04;;;;;;;35.80;32.00;;;19.30;95.90;;;;;;5066788;28;20042;-64
2023/10/30 03:10:30;;;;;;;37.10;33.10;;;19.30;99.90;;;;;;5066699;28;20098;-63
2023/10/30 03:12:56;;;;;;;36.58;32.72;;;19.40;99.90;;;;;;5066322;28;20581;-63
2023/10/30 03:15:22;;;;;;;35.88;32.17;;;19.20;99.90;;;;;;5066305;28;20451;-63
2023/10/30 03:17:48;;;;;;;34.60;31.02;;;19.50;99.90;;;;;;5066338;28;20037;-62
2023/10/30 03:20:14;;;;;;;36.67;32.95;;;19.00;99.90;;;;;;5063218;28;20048;-62
2023/10/30 03:22:40;;;;;;;36.72;32.85;;;19.10;99.90;;;;;;5066513;28;20032;-63
2023/10/30 03:25:06;;;;;;;38.00;33.58;;;19.10;99.90;;;;;;5066774;28;20127;-63
2023/10/30 03:27:33;;;;;;;36.90;32.95;;;18.90;99.90;;;;;;5067132;28;20044;-63
2023/10/30 03:29:58;;;;;;;37.47;33.67;;;18.90;99.90;;;;;;5066559;28;20048;-63
2023/10/30 03:32:24;;;;;;;36.38;32.60;;;18.90;99.90;;;;;;5066047;28;20046;-64
2023/10/30 03:34:49;;;;;;;40.10;33.97;;;19.10;99.90;;;;;;5066723;28;21124;-63
2023/10/30 03:37:15;;;;;;;37.45;33.47;;;19.00;99.90;;;;;;5065840;28;20044;-64
2023/10/30 03:39:40;;;;;;;36.55;32.72;;;19.20;99.90;;;;;;5066216;28;20045;-63
2023/10/30 03:42:06;;;;;;;37.25;33.47;;;19.00;99.90;;;;;;5060196;28;20128;-63
2023/10/30 03:44:32;;;;;;;39.38;34.78;;;19.20;99.90;;;;;;5066341;28;20781;-63
2023/10/30 03:46:57;;;;;;;37.63;33.72;;;19.30;99.90;;;;;;5066545;28;20040;-64
2023/10/30 03:49:23;;;;;;;36.83;32.72;;;19.20;99.90;;;;;;5057926;28;20129;-63
2023/10/30 03:51:49;;;;;;;46.15;32.90;;;19.20;99.90;;;;;;5065527;28;20828;-62
2023/10/30 03:54:15;;;;;;;39.65;34.40;;;19.20;99.90;;;;;;5064608;28;20036;-61
2023/10/30 03:56:40;;;;;;;42.95;35.83;;;19.20;99.90;;;;;;5066197;28;20539;-63
2023/10/30 03:59:06;;;;;;;38.03;33.88;;;19.30;99.90;;;;;;5065663;28;20049;-62
2023/10/30 04:01:32;;;;;;;38.72;34.50;;;19.10;99.90;;;;;;5064981;28;20143;-63
2023/10/30 04:03:57;;;;;;;44.55;35.13;;;19.30;99.90;;;;;;5066325;28;20082;-62
2023/10/30 04:06:23;;;;;;;41.97;35.15;;;19.20;99.90;;;;;;5064731;28;20058;-63
2023/10/30 04:08:48;;;;;;;39.17;34.10;;;19.40;99.90;;;;;;5065685;28;20136;-61
2023/10/30 04:11:16;;;;;;;45.55;35.95;;;19.80;99.90;;;;;;5065330;28;20167;-61
2023/10/30 04:13:42;;;;;;;41.15;36.70;;;19.40;99.90;;;;;;5065420;28;20044;-62
2023/10/30 04:16:13;;;;;;;46.38;34.90;;;19.40;99.90;;;;;;5064333;28;20405;-62
2023/10/30 04:18:38;;;;;;;47.20;35.50;;;19.10;99.90;;;;;;5068629;28;20040;-62
2023/10/30 04:21:05;;;;;;;46.58;36.38;;;19.30;99.90;;;;;;5055975;28;20060;-61
2023/10/30 04:23:31;;;;;;;41.42;35.22;;;19.10;99.90;;;;;;5063651;28;20032;-63
2023/10/30 04:25:57;;;;;;;42.92;35.67;;;19.10;99.90;;;;;;5067572;28;20039;-62
2023/10/30 04:28:23;;;;;;;44.78;37.08;;;19.60;99.90;;;;;;5067696;28;20564;-62
2023/10/30 04:30:49;;;;;;;44.85;36.38;;;19.20;99.90;;;;;;5070715;28;20173;-62
2023/10/30 04:33:15;;;;;;;43.97;36.38;;;19.00;99.90;;;;;;5069422;28;20064;-64
2023/10/30 04:35:41;;;;;;;45.90;37.13;;;19.00;99.90;;;;;;5069728;28;20426;-62
2023/10/30 04:38:07;;;;;;;47.80;38.28;;;19.20;1.00;;;;;;5069597;28;20531;-64
2023/10/30 04:40:33;;;;;;;45.50;38.25;;;19.10;1.00;;;;;;5066704;28;20044;-63
2023/10/30 04:42:58;;;;;;;46.30;37.13;;;19.30;1.00;;;;;;5071875;28;20036;-64
2023/10/30 04:45:24;;;;;;;51.03;38.17;;;19.10;1.00;;;;;;5069397;28;20032;-62
2023/10/30 04:47:50;;;;;;;46.17;37.78;;;19.10;1.00;;;;;;5068768;28;20344;-62
2023/10/30 04:50:15;;;;;;;49.85;37.17;;;19.20;1.00;;;;;;5084984;28;20037;-63
2023/10/30 04:52:41;;;;;;;47.63;37.13;;;19.10;1.00;;;;;;5067109;28;20036;-62
2023/10/30 04:55:06;;;;;;;47.38;37.55;;;19.10;1.00;;;;;;5063371;28;20094;-64
2023/10/30 04:57:32;;;;;;;47.63;37.00;;;19.30;1.00;;;;;;5066375;28;20036;-62
2023/10/30 04:59:58;;;;;;;46.55;36.20;;;19.30;1.00;;;;;;5069470;28;20502;-62
2023/10/30 05:02:24;;;;;;;43.20;36.53;;;19.00;1.00;;;;;;5068345;28;20076;-63
2023/10/30 05:04:49;;;;;;;41.92;36.08;;;19.10;1.00;;;;;;5068183;28;20129;-62
2023/10/30 05:07:15;;;;;;;46.42;36.67;;;19.50;1.00;;;;;;5058328;28;20045;-61
2023/10/30 05:09:41;;;;;;;46.45;35.25;;;19.10;1.00;;;;;;5068298;28;20048;-62
2023/10/30 05:12:07;;;;;;;44.42;34.40;;;19.20;1.00;;;;;;5067899;28;20056;-64
2023/10/30 05:14:32;;;;;;;45.00;35.03;;;19.10;1.00;;;;;;5069413;28;20410;-63
2023/10/30 05:16:58;;;;;;;42.88;34.97;;;19.10;1.00;;;;;;5067239;28;20048;-64
2023/10/30 05:19:23;;;;;;;44.50;34.38;;;19.20;1.00;;;;;;5066854;28;20048;-63
2023/10/30 05:21:49;;;;;;;39.83;34.55;;;19.10;1.00;;;;;;5065621;28;20120;-63
2023/10/30 05:24:14;;;;;;;41.17;35.63;;;19.10;1.00;;;;;;5068087;28;20036;-63
2023/10/30 05:26:40;;;;;;;36.67;32.65;;;19.20;1.00;;;;;;5069204;28;20052;-62
2023/10/30 05:29:05;;;;;;;44.70;34.60;;;19.30;1.00;;;;;;5068287;28;20036;-62
2023/10/30 05:31:31;;;;;;;43.47;34.53;;;19.10;1.00;;;;;;5066455;28;20051;-63
2023/10/30 05:33:56;;;;;;;40.38;33.22;;;19.80;1.00;;;;;;5064366;28;20044;-62
2023/10/30 05:36:22;;;;;;;40.13;32.90;;;19.10;1.00;;;;;;5066270;28;20127;-62
2023/10/30 05:38:47;;;;;;;44.20;34.78;;;19.40;1.00;;;;;;5067963;28;20045;-62
2023/10/30 05:41:13;;;;;;;37.90;33.83;;;19.10;1.00;;;;;;5083277;28;20032;-63
2023/10/30 05:43:39;;;;;;;44.70;34.08;;;18.90;1.00;;;;;;5065131;28;20613;-63
2023/10/30 05:46:04;;;;;;;42.08;33.70;;;19.10;1.00;;;;;;5068519;28;20094;-62
2023/10/30 05:48:30;;;;;;;37.08;32.70;;;19.10;1.00;;;;;;5065178;28;20047;-63
2023/10/30 05:50:55;;;;;;;42.78;33.08;;;19.00;1.00;;;;;;5068356;28;20133;-63
2023/10/30 05:53:21;;;;;;;45.65;33.60;;;19.10;1.00;;;;;;5066906;28;20040;-63
2023/10/30 05:55:46;;;;;;;45.65;34.30;;;18.90;99.90;;;;;;5067307;28;20062;-63
2023/10/30 05:58:12;;;;;;;42.95;34.05;;;19.00;99.90;;;;;;5064895;28;20082;-63
2023/10/30 06:00:38;;;;;;;42.15;33.10;;;19.00;99.90;;;;;;5066467;28;20383;-62
2023/10/30 06:03:09;;;;;;;40.95;33.65;;;19.00;99.90;;;;;;5066745;28;20119;-63
2023/10/30 06:05:35;;;;;;;41.97;34.03;;;18.80;99.90;;;;;;5063249;28;20497;-63
2023/10/30 06:08:00;;;;;;;41.08;34.60;;;18.70;99.90;;;;;;5064907;28;20085;-62
2023/10/30 06:10:26;;;;;;;45.70;35.22;;;18.90;99.90;;;;;;5066675;28;20040;-63
2023/10/30 06:12:51;;;;;;;42.72;35.10;;;18.90;99.90;;;;;;5066897;28;20049;-64
2023/10/30 06:15:17;;;;;;;42.85;34.63;;;18.90;99.90;;;;;;5065235;28;20036;-62
2023/10/30 06:17:43;;;;;;;46.45;34.47;;;18.70;99.90;;;;;;5058712;28;20798;-63
2023/10/30 06:20:09;;;;;;;40.15;33.88;;;18.80;99.90;;;;;;5061686;28;20083;-64
2023/10/30 06:22:35;;;;;;;41.55;34.20;;;18.90;99.90;;;;;;5063088;28;20048;-63
2023/10/30 06:25:00;;;;;;;37.47;33.30;;;18.90;99.90;;;;;;5065621;28;20074;-64
2023/10/30 06:27:27;;;;;;;51.60;35.78;;;18.90;99.90;;;;;;5066044;28;20181;-64
2023/10/30 06:29:53;;;;;;;46.47;34.63;;;18.90;99.90;;;;;;5065438;28;20048;-63
2023/10/30 06:32:19;;;;;;;42.67;35.38;;;18.70;99.90;;;;;;5067447;28;20414;-63
2023/10/30 06:34:45;;;;;;;42.40;34.42;;;18.60;99.90;;;;;;5066987;28;20498;-63
2023/10/30 06:37:10;;;;;;;42.22;34.88;;;18.90;99.90;;;;;;5068103;28;20048;-62
2023/10/30 06:39:37;;;;;;;41.22;33.83;;;18.90;99.90;;;;;;5067091;28;20040;-63
2023/10/30 06:42:03;;;;;;;43.78;34.03;;;18.70;99.90;;;;;;5065133;28;20123;-62
2023/10/30 06:44:28;;;;;;;44.50;31.63;;;18.70;99.90;;;;;;5066244;28;20047;-62
2023/10/30 06:46:56;;;;;;;45.67;32.08;;;18.90;99.90;;;;;;5062958;28;20032;-64
2023/10/30 06:49:21;;;;;;;42.45;33.50;;;19.00;99.90;;;;;;5064852;28;20049;-62
2023/10/30 06:51:47;;;;;;;43.55;34.25;;;19.00;99.90;;;;;;5064695;28;20044;-61
2023/10/30 06:54:13;;;;;;;44.47;33.63;;;18.80;99.90;;;;;;5060411;28;20707;-63
2023/10/30 06:56:39;;;;;;;40.58;33.80;;;19.00;99.90;;;;;;5065750;28;20074;-63
2023/10/30 06:59:05;;;;;;;41.70;34.60;;;19.00;99.90;;;;;;5066565;28;20109;-62
2023/10/30 07:01:47;;;;;;;41.35;34.30;;;18.80;99.90;;;;;;5066452;28;20455;-63
2023/10/30 07:04:13;;;;;;;41.03;33.25;;;19.60;99.90;;;;;;5066753;28;20615;-62
2023/10/30 07:06:41;;;;;;;44.88;33.17;;;18.90;99.90;;;;;;5062992;28;20418;-62
2023/10/30 07:09:07;;;;;;;40.42;32.28;;;19.10;99.90;;;;;;5067023;28;20477;-62
2023/10/30 07:11:34;;;;;;;40.00;33.55;;;19.00;99.90;;;;;;5065714;28;20041;-62
2023/10/30 07:14:04;;;;;;;42.05;33.42;;;18.90;99.90;;;;;;5062290;28;20461;-63
2023/10/30 07:16:30;;;;;;;44.60;33.53;;;18.90;99.90;;;;;;5061454;28;20052;-64
2023/10/30 07:18:57;;;;;;;41.60;33.70;;;19.20;99.90;;;;;;5063027;28;20460;-63
2023/10/30 07:21:23;;;;;;;43.00;33.17;;;19.20;99.90;;;;;;5062465;28;20094;-63
2023/10/30 07:23:49;;;;;;;42.95;33.33;;;19.20;99.90;;;;;;5065978;28;20143;-63
2023/10/30 07:26:16;;;;;;;42.40;34.25;;;19.60;99.90;;;;;;5066187;28;20127;-64
2023/10/30 07:28:42;;;;;;;41.40;34.88;;;19.00;99.90;;;;;;5065586;28;20043;-63
2023/10/30 07:31:08;;;;;;;41.60;34.53;;;19.20;99.90;;;;;;5066016;28;20064;-62
2023/10/30 07:33:34;;;;;;;42.08;33.85;;;19.20;99.90;;;;;;5061832;28;20075;-63
2023/10/30 07:36:02;;;;;;;44.53;33.92;;;19.40;99.90;;;;;;5066230;28;20052;-68
2023/10/30 07:38:28;;;;;;;41.30;32.90;;;19.20;99.90;;;;;;5081004;28;20048;-68
2023/10/30 07:40:54;;;;;;;41.10;33.30;;;19.30;99.90;;;;;;5065036;28;20040;-67
2023/10/30 07:43:21;;;;;;;38.22;33.30;;;19.40;99.90;;;;;;5065724;28;20046;-68
2023/10/30 07:45:50;;;;;;;39.03;31.65;;;19.70;99.90;;;;;;5066398;28;20775;-67
2023/10/30 07:48:16;;;;;;;39.58;32.70;;;19.60;99.90;;;;;;5062650;28;20040;-69
2023/10/30 07:50:45;;;;;;;43.25;31.80;;;19.60;99.90;;;;;;5064667;28;20064;-68
2023/10/30 07:53:11;;;;;;;41.42;32.72;;;19.60;99.90;;;;;;5065247;28;20046;-68
2023/10/30 07:55:38;;;;;;;51.20;32.28;;;19.60;99.90;;;;;;5065294;28;20040;-68
2023/10/30 07:58:05;;;;;;;43.53;33.05;;;19.60;99.90;;;;;;5065201;28;20125;-67
2023/10/30 08:00:31;;;;;;;37.97;31.95;;;19.80;99.90;;;;;;5065817;28;20044;-69
2023/10/30 08:02:57;;;;;;;37.97;31.17;;;19.80;99.90;;;;;;5065728;28;20044;-69
2023/10/30 08:05:22;;;;;;;41.00;30.73;;;20.10;99.90;;;;;;5065061;28;20379;-68
2023/10/30 08:07:48;;;;;;;39.97;30.67;;;20.10;99.90;;;;;;5064340;28;20422;-66
2023/10/30 08:10:14;;;;;;;34.42;29.95;;;20.10;99.90;;;;;;5066249;28;20058;-69
2023/10/30 08:12:40;;;;;;;38.38;30.48;;;20.20;99.90;;;;;;5065226;28;20043;-68
2023/10/30 08:15:09;;;;;;;37.13;30.48;;;20.10;99.90;;;;;;5065346;28;20390;-68
2023/10/30 08:17:35;;;;;;;42.03;30.70;;;20.30;78.50;;;;;;5064532;28;20040;-68
2023/10/30 08:20:03;;;;;;;42.47;31.05;;;20.20;41.20;;;;;;5062245;28;20119;-68
2023/10/30 08:22:29;;;;;;;35.55;30.85;;;20.20;13.70;;;;;;5066393;28;20383;-69
2023/10/30 08:24:55;;;;;;;37.92;31.20;;;20.20;1.00;;;;;;5064331;28;20048;-69
2023/10/30 08:27:20;;;;;;;39.97;30.63;;;21.00;1.00;;;;;;5065116;28;20044;-69
2023/10/30 08:29:46;;;;;;;41.25;32.75;;;20.10;1.00;;;;;;5065602;28;20041;-69
2023/10/30 08:32:12;;;;;;;45.95;32.60;;;20.00;1.00;;;;;;5063567;28;20632;-70
2023/10/30 08:34:37;;;;;;;42.88;31.55;;;20.00;1.00;;;;;;5065770;28;20135;-67
2023/10/30 08:37:03;;;;;;;39.20;32.00;;;20.00;1.00;;;;;;5065505;28;20153;-69
2023/10/30 08:39:29;;;;;;;42.92;31.98;;;20.00;1.00;;;;;;5065144;28;20068;-68
2023/10/30 08:41:54;;;;;;;40.25;31.83;;;20.10;1.00;;;;;;5064867;28;20045;-69
2023/10/30 08:44:20;;;;;;;36.88;30.60;;;20.20;1.00;;;;;;5063727;28;20058;-65
2023/10/30 08:46:45;;;;;;;38.08;30.67;;;20.10;1.00;;;;;;5064450;28;20109;-64
2023/10/30 08:49:11;;;;;;;39.47;30.70;;;20.20;1.00;;;;;;5065070;28;20040;-63
2023/10/30 08:51:43;;;;;;;40.90;31.00;;;20.10;1.00;;;;;;5065174;28;20052;-63
2023/10/30 08:54:09;;;;;;;35.08;31.02;;;20.20;1.00;;;;;;5062458;28;20474;-63
2023/10/30 08:56:36;;;;;;;39.03;32.17;;;20.10;1.00;;;;;;5063617;28;20040;-64
2023/10/30 08:59:03;;;;;;;36.92;30.73;;;20.80;1.00;;;;;;5064190;28;20045;-64
2023/10/30 09:01:31;;;;;;;37.55;32.05;;;20.20;1.00;;;;;;5065153;28;20170;-63
2023/10/30 09:03:57;;;;;;;39.08;31.08;;;20.10;1.00;;;;;;5070044;28;20032;-65
2023/10/30 09:06:22;;;;;;;37.42;30.30;;;20.20;1.00;;;;;;5065688;28;20051;-63
2023/10/30 09:08:48;;;;;;;38.40;31.60;;;20.20;99.90;;;;;;5067305;28;20604;-63
2023/10/30 09:11:14;;;;;;;39.42;30.10;;;20.30;1.00;;;;;;5068622;28;20052;-64
2023/10/30 09:13:39;;;;;;;35.15;30.13;;;20.20;99.90;;;;;;5069059;28;20047;-64
2023/10/30 09:16:05;;;;;;;37.83;30.88;;;20.40;99.90;;;;;;5068270;28;20041;-64
2023/10/30 09:18:31;;;;;;;37.97;30.98;;;20.40;99.90;;;;;;5068695;28;20041;-66
2023/10/30 09:20:56;;;;;;;37.70;31.23;;;20.30;99.90;;;;;;5065235;28;20367;-64
2023/10/30 09:23:23;;;;;;;41.13;31.45;;;20.30;99.90;;;;;;5069087;28;20405;-64
2023/10/30 09:25:49;;;;;;;36.33;29.98;;;20.90;99.90;;;;;;5068005;28;20036;-63
2023/10/30 09:28:14;;;;;;;41.67;30.30;;;20.60;99.90;;;;;;5066827;28;20048;-64
2023/10/30 09:30:40;;;;;;;38.08;31.08;;;20.40;99.90;;;;;;5066852;28;20037;-63
2023/10/30 09:33:07;;;;;;;36.10;29.80;;;20.90;99.90;;;;;;5068422;28;20568;-65
2023/10/30 09:35:33;;;;;;;34.55;29.05;;;20.70;99.90;;;;;;5068094;28;20486;-64
2023/10/30 09:37:59;;;;;;;35.90;28.25;;;20.80;99.90;;;;;;5069196;28;20055;-63
2023/10/30 09:40:28;;;;;;;40.70;29.45;;;21.00;99.90;;;;;;5067487;28;20482;-64
2023/10/30 09:42:55;;;;;;;38.33;30.02;;;21.00;99.90;;;;;;5067886;28;20044;-64
2023/10/30 09:45:22;;;;;;;38.38;30.40;;;21.00;99.90;;;;;;5065522;28;20044;-63
2023/10/30 09:47:55;;;;;;;41.85;31.33;;;21.00;99.90;;;;;;5065948;28;20178;-64
2023/10/30 09:50:22;;;;;;;37.45;28.75;;;20.90;99.90;;;;;;5069123;28;20101;-64
2023/10/30 09:52:49;;;;;;;44.00;29.83;;;21.30;99.90;;;;;;5067006;28;20044;-66
2023/10/30 09:55:19;;;;;;;40.72;29.55;;;21.40;99.90;;;;;;5068497;28;20091;-65
2023/10/30 09:57:49;;;;;;;35.35;28.52;;;21.50;99.90;;;;;;5079364;28;20158;-65
2023/10/30 10:00:16;;;;;;;30.52;26.55;;;22.10;99.90;;;;;;5065838;28;20053;-66
2023/10/30 10:02:42;;;;;;;42.92;28.15;;;21.40;99.90;;;;;;5067674;28;20098;-65
2023/10/30 10:05:09;;;;;;;36.53;30.02;;;22.10;99.90;;;;;;5067017;28;20491;-65
2023/10/30 10:07:35;;;;;;;37.90;28.70;;;21.30;99.90;;;;;;5064058;28;20160;-66
2023/10/30 10:10:06;;;;;;;39.10;29.58;;;21.30;99.90;;;;;;5067842;28;20044;-64
2023/10/30 10:12:33;;;;;;;34.40;29.10;;;21.10;99.90;;;;;;5067243;28;20072;-65
2023/10/30 10:14:59;;;;;;;36.85;30.13;;;21.00;99.90;;;;;;5066350;28;20040;-65
2023/10/30 10:17:25;;;;;;;34.10;28.80;;;21.20;99.90;;;;;;5064889;28;20043;-65
2023/10/30 10:19:51;;;;;;;32.15;28.15;;;21.30;99.90;;;;;;5067136;28;20083;-66
2023/10/30 10:22:30;;;;;;;38.40;29.88;;;21.30;99.90;;;;;;5066847;28;20037;-64
2023/10/30 10:24:56;;;;;;;34.95;27.40;;;21.20;99.90;;;;;;5067458;28;20044;-65
2023/10/30 10:27:24;;;;;;;35.67;28.30;;;21.50;99.90;;;;;;5067826;28;20036;-64
2023/10/30 10:29:55;;;;;;;39.40;28.83;;;21.30;99.90;;;;;;5067075;28;20055;-64
2023/10/30 10:32:25;;;;;;;36.88;28.10;;;21.30;99.90;;;;;;5063489;28;20059;-65
2023/10/30 10:34:58;;;;;;;34.95;28.48;;;21.20;99.90;;;;;;5065732;28;20084;-64
2023/10/30 10:37:24;;;;;;;37.53;29.40;;;21.20;99.90;;;;;;5066796;28;20047;-66
2023/10/30 10:39:53;;;;;;;37.92;30.52;;;21.30;99.90;;;;;;5067320;28;20490;-64
2023/10/30 10:42:25;;;;;;;38.78;28.70;;;21.30;99.90;;;;;;5064524;28;20040;-63
2023/10/30 10:44:53;;;;;;;34.45;26.58;;;21.50;99.90;;;;;;5078730;28;20051;-64
2023/10/30 10:47:20;;;;;;;34.70;27.92;;;21.50;99.90;;;;;;5063776;28;20236;-65
2023/10/30 10:49:46;;;;;;;36.05;28.27;;;21.80;99.90;;;;;;5067271;28;20426;-65
2023/10/30 10:52:14;;;;;;;34.00;28.10;;;21.70;99.90;;;;;;5065212;28;20041;-66
2023/10/30 10:55:04;;;;;;;40.20;28.30;;;21.80;99.90;;;;;;5067698;28;20430;-64
2023/10/30 10:57:54;;;;;;;37.42;27.52;;;21.80;92.00;;;;;;5062525;28;20052;-65
2023/10/30 11:00:22;;;;;;;36.53;28.35;;;21.70;56.90;;;;;;5063511;28;20048;-64
2023/10/30 11:02:51;;;;;;;33.88;27.13;;;21.80;72.60;;;;;;5059353;28;20060;-64
2023/10/30 11:05:17;;;;;;;34.25;27.88;;;21.80;73.50;;;;;;5058838;28;20041;-64
2023/10/30 11:07:52;;;;;;;32.53;27.08;;;23.00;52.50;;;;;;5064745;28;20047;-65
2023/10/30 11:10:24;;;;;;;32.85;26.30;;;21.90;49.50;;;;;;5060568;28;20088;-65
2023/10/30 11:13:16;;;;;;;36.80;27.08;;;22.00;59.90;;;;;;5062170;28;20173;-66
2023/10/30 11:15:48;;;;;;;35.47;25.27;;;22.20;56.80;;;;;;5064401;28;20055;-65
2023/10/30 11:18:20;;;;;;;33.38;24.35;;;22.30;41.60;;;;;;5065650;28;20575;-66
2023/10/30 11:20:46;;;;;;;39.75;24.15;;;22.30;27.10;;;;;;5063819;28;20522;-65
2023/10/30 11:23:12;;;;;;;31.98;23.40;;;22.20;12.80;;;;;;5064929;28;20044;-63
2023/10/30 11:25:39;;;;;;;29.67;23.25;;;22.20;8.00;;;;;;5067634;28;20037;-65
2023/10/30 11:28:04;;;;;;;38.42;24.98;;;22.10;1.30;;;;;;5065106;28;20045;-64
2023/10/30 11:30:32;;;;;;;31.15;24.92;;;22.00;1.00;;;;;;5064287;28;20093;-65
2023/10/30 11:32:58;;;;;;;31.85;25.30;;;22.10;1.00;;;;;;5065550;28;20041;-64
2023/10/30 11:35:28;;;;;;;29.77;24.75;;;22.10;1.00;;;;;;5068644;28;20052;-64
2023/10/30 11:37:54;;;;;;;31.65;23.55;;;22.20;1.00;;;;;;5065973;28;20098;-65
2023/10/30 11:40:20;;;;;;;32.83;23.85;;;22.00;2.80;;;;;;5063691;28;20040;-67
2023/10/30 11:42:45;;;;;;;30.17;24.02;;;22.10;1.00;;;;;;5064744;28;20078;-65
2023/10/30 11:45:18;;;;;;;35.88;24.73;;;22.10;1.00;;;;;;5062927;28;20046;-64
2023/10/30 11:47:46;;;;;;;33.30;23.02;;;22.10;1.00;;;;;;5063392;28;20383;-64
2023/10/30 11:50:12;;;;;;;31.88;25.55;;;22.30;1.00;;;;;;5064022;28;20387;-66
2023/10/30 11:52:38;;;;;;;33.80;24.95;;;22.30;1.00;;;;;;5065047;28;20050;-64
2023/10/30 11:55:07;;;;;;;29.88;25.70;;;22.10;1.00;;;;;;5061223;28;20048;-64
2023/10/30 11:57:37;;;;;;;32.20;25.17;;;22.10;1.00;;;;;;5065044;28;20399;-63
2023/10/30 12:00:03;;;;;;;31.73;27.33;;;22.10;1.00;;;;;;5063099;28;20110;-64
2023/10/30 12:02:29;;;;;;;30.95;27.55;;;22.00;1.00;;;;;;5061719;28;20111;-64
2023/10/30 12:05:04;;;;;;;36.17;28.00;;;22.00;1.00;;;;;;5065175;28;20064;-64
2023/10/30 12:07:29;;;;;;;33.57;27.40;;;22.20;1.00;;;;;;5061339;28;20523;-64
2023/10/30 12:09:55;;;;;;;36.60;27.95;;;21.90;1.00;;;;;;5065289;28;20045;-65
2023/10/30 12:12:22;;;;;;;32.50;28.15;;;21.80;1.00;;;;;;5064524;28;20048;-65
2023/10/30 12:14:48;;;;;;;37.17;28.90;;;21.90;1.00;;;;;;5063949;28;20066;-65
2023/10/30 12:17:14;;;;;;;36.60;29.35;;;22.50;1.00;;;;;;5063067;28;20044;-64
2023/10/30 12:19:43;;;;;;;35.45;28.75;;;22.00;1.00;;;;;;5065492;28;20049;-65
2023/10/30 12:22:08;;;;;;;36.47;29.50;;;21.80;1.00;;;;;;5063827;28;20041;-64
2023/10/30 12:24:34;;;;;;;37.08;28.30;;;21.80;1.00;;;;;;5064348;28;20391;-65
2023/10/30 12:27:00;;;;;;;38.03;29.33;;;22.00;1.00;;;;;;5064090;28;20043;-64